Terminal Aerodrome Forecast
Issued by NWS Twin Cities, MN

Home | Current Version | Previous Version | Graphics & Text | Print | Product List | Glossary On
Versions: 1 2 3 4 5 6 7 8 9 10 11 12 13 14 15 16 17 18 19
000
FTUS43 KMPX 291011 AAA
TAFEAU
TAF AMD
KEAU 291011Z 2910/3006 31011KT 4SM BR OVC008
      TEMPO 2910/2912 2SM -FZDZSN
     FM291200 32016G23KT P6SM OVC012
     FM292100 32013G20KT P6SM BKN020
     FM300200 34010KT P6SM SCT020=

USA.gov is the U.S. government's official web portal to all federal, state and local government web resources and services.